ADDS TAF Board (Experimental) INFO Settings
IDs: Format: Expanded Condensed

KDCA - Washington/National, VA, US

Issued at 0523 UTC 26 Aug 2016
Updated at 0827 UTC 26 Aug 2016
Time0752Z 26/09Z 26/10Z 26/11Z 26/12Z 26/13Z 26/14Z 26/15Z 26/16Z 26/17Z 26/18Z 26/19Z 26/20Z 26/21Z
Type OBS PRVL PRVL PRVL PRVL PRVL PRVL PRVL PRVL PRVL PRVL PRVL PRVL PRVL
VIS 10 >6 >6 >6 >6 >6 >6 >6 >6 >6 >6 >6 >6 >6
CIG -- -- -- -- -- -- -- -- -- -- -- -- -- --
Cover SCT FEW FEW FEW FEW FEW FEW FEW FEW FEW FEW FEW FEW FEW
FltCat VFR VFR VFR VFR VFR VFR VFR VFR VFR VFR VFR VFR VFR VFR
WX -- -- -- -- -- -- -- -- -- -- -- -- -- --
WDir 180 200 200 200 270 270 270 270 270 270 270 270 270 270
WSpd 5 4 4 4 5 5 5 5 5 5 5 5 5 5
WGst -- -- -- -- -- -- -- -- -- -- -- -- -- --
R01/19
XWnd 0 2 2 2 5 5 5 5 5 5 5 5 5 5
HWnd -5 -4 -4 -4 0 0 0 0 0 0 0 0 0 0
R04/22
XWnd -2 -0 -0 -0 4 4 4 4 4 4 4 4 4 4
HWnd -4 -4 -4 -4 -2 -2 -2 -2 -2 -2 -2 -2 -2 -2
R15/33
XWnd -3 -3 -3 -3 -4 -4 -4 -4 -4 -4 -4 -4 -4 -4
HWnd 4 2 2 2 -3 -3 -3 -3 -3 -3 -3 -3 -3 -3

Raw TAF
KDCA 260523Z 2606/2706 20004KT P6SM FEW250
  FM261200 27005KT P6SM FEW250
  FM262200 33006KT P6SM SCT250


Raw METAR
KDCA 260752Z COR 18005KT 10SM SCT060 26/24 A3001 RMK AO2 SLP162 T02610239
KDCA 260652Z 19007KT 10SM CLR 26/23 A3001 RMK AO2 SLP162 T02610233
KDCA 260552Z 18005KT 10SM CLR 26/23 A3002 RMK AO2 SLP164 T02610233 10294 20261 56002

METAR Board
Radar Display
Forecast Discussion

TAF Board Legend

Potential Impact
Threat None Slight Moderate High
Visibility (sm) ≥5.1 5.1>X≥3 3>X≥1 <1
Ceiling (100 ft) ≥30.1 30.1>X≥10 10>X≥5 <5
Wind Speed (kt) <10 10≤X<20 20≤X<30 ≥30
Wind Gust (kt) <15 15≤X<25 25≤X<35 ≥35
Weather No Wx Reported VCTS,-TS,-FZRA,SN TS,FZRA +TS,+FZRA,+SN